ěÝzenÝ letovÚho provozu ╚eskÚ republiky
Letiste: LKLN Aktualizace: 25.01.2022 11:22:28  UTC
 METAR LKLN 25.01. 11:30 ...
METAR LKLN 251130Z AUTO 28005KT 260V330 9999 OVC012 02/M01 Q1031=